createdAt,value
2018-06-18T00:01:09.814Z,67.50
2018-06-18T00:03:39.503Z,67.80
2018-06-18T00:06:09.279Z,67.80
2018-06-18T00:08:38.970Z,67.70
2018-06-18T00:11:08.741Z,68.20
2018-06-18T00:13:38.401Z,68.00
2018-06-18T00:16:08.066Z,68.00
2018-06-18T00:18:37.751Z,68.10
2018-06-18T00:21:07.590Z,68.30
2018-06-18T00:23:37.307Z,68.30
2018-06-18T00:26:06.990Z,68.30
2018-06-18T00:28:36.694Z,69.00
2018-06-18T00:31:06.688Z,68.60
2018-06-18T00:33:36.423Z,68.40
2018-06-18T00:36:06.139Z,68.20
2018-06-18T00:38:35.846Z,67.90
2018-06-18T00:41:05.526Z,67.90
2018-06-18T00:43:35.233Z,67.90
2018-06-18T00:46:05.040Z,68.40
2018-06-18T00:48:34.758Z,68.80
2018-06-18T00:51:04.450Z,68.30
2018-06-18T00:53:34.191Z,68.50
2018-06-18T00:56:08.754Z,68.80
2018-06-18T00:58:38.899Z,68.70
2018-06-18T01:01:08.890Z,68.70
2018-06-18T01:03:38.604Z,68.80
2018-06-18T01:06:08.503Z,69.30
2018-06-18T01:08:38.213Z,69.00
2018-06-18T01:11:07.911Z,68.80
2018-06-18T01:13:37.601Z,68.30
2018-06-18T01:16:07.283Z,68.60
2018-06-18T01:18:36.998Z,69.00
2018-06-18T01:21:06.694Z,69.30
2018-06-18T01:24:46.139Z,69.30
2018-06-18T01:27:15.810Z,69.60
2018-06-18T01:29:45.714Z,69.40
2018-06-18T01:32:15.795Z,69.50
2018-06-18T01:34:45.554Z,70.10
2018-06-18T01:37:15.239Z,69.70
2018-06-18T01:39:44.943Z,69.90
2018-06-18T01:42:14.631Z,69.70
2018-06-18T01:44:44.365Z,69.90
2018-06-18T01:47:14.054Z,70.30
2018-06-18T01:49:43.771Z,69.70
2018-06-18T01:52:13.454Z,69.70
2018-06-18T01:57:12.427Z,70.30
2018-06-18T01:59:42.126Z,70.30
2018-06-18T02:02:11.826Z,70.30
2018-06-18T02:04:41.551Z,70.10
2018-06-18T02:07:11.258Z,69.90
2018-06-18T02:09:41.168Z,70.40
2018-06-18T02:12:10.859Z,70.10
2018-06-18T02:14:40.562Z,70.20
2018-06-18T02:17:10.243Z,70.10
2018-06-18T02:19:39.978Z,69.80
2018-06-18T02:22:09.711Z,69.90
2018-06-18T02:24:39.394Z,69.80
2018-06-18T02:27:14.266Z,70.20
2018-06-18T02:29:49.691Z,70.70
2018-06-18T02:32:24.662Z,70.60
2018-06-18T02:34:59.723Z,70.50
2018-06-18T02:37:34.679Z,70.90
2018-06-18T02:40:09.666Z,70.80
2018-06-18T02:42:39.346Z,71.20
2018-06-18T02:45:09.043Z,71.90
2018-06-18T02:47:39.087Z,71.20
2018-06-18T02:50:08.798Z,71.90
2018-06-18T02:52:38.467Z,72.10
2018-06-18T02:55:08.202Z,72.40
2018-06-18T02:57:37.891Z,72.70
2018-06-18T03:00:07.631Z,72.50
2018-06-18T03:02:37.342Z,72.40
2018-06-18T03:05:07.384Z,72.40
2018-06-18T03:07:37.087Z,72.50
2018-06-18T03:10:06.798Z,72.80
2018-06-18T03:12:36.494Z,72.90
2018-06-18T03:15:06.246Z,72.40
2018-06-18T03:17:36.124Z,72.50
2018-06-18T03:20:11.139Z,72.30
2018-06-18T03:22:45.990Z,73.20
2018-06-18T03:25:21.007Z,72.50
2018-06-18T03:27:56.046Z,72.70
2018-06-18T03:30:25.755Z,72.50
2018-06-18T03:32:55.443Z,72.50
2018-06-18T03:35:25.131Z,71.90
2018-06-18T03:37:55.847Z,72.20
2018-06-18T03:40:25.555Z,72.40
2018-06-18T03:42:55.226Z,72.30
2018-06-18T03:45:32.271Z,72.30
2018-06-18T03:48:08.543Z,72.80
2018-06-18T03:50:38.278Z,73.20
2018-06-18T03:53:08.079Z,73.10
2018-06-18T03:55:54.394Z,73.20
2018-06-18T03:58:24.254Z,72.70
2018-06-18T04:01:24.610Z,73.30
2018-06-18T04:04:01.535Z,73.20
2018-06-18T04:09:13.296Z,73.20
2018-06-18T04:11:50.882Z,73.10
2018-06-18T04:14:20.595Z,73.60
2018-06-18T04:16:50.431Z,73.80
2018-06-18T04:19:21.375Z,73.20
2018-06-18T04:21:53.098Z,72.90
2018-06-18T04:24:22.806Z,73.20
2018-06-18T04:26:52.811Z,73.40
2018-06-18T04:29:25.948Z,73.60
2018-06-18T04:31:57.702Z,73.60
2018-06-18T04:34:29.925Z,74.30
2018-06-18T04:36:59.699Z,73.80
2018-06-18T04:39:29.606Z,73.60
2018-06-18T04:42:04.570Z,74.20
2018-06-18T04:44:39.517Z,73.60
2018-06-18T04:47:14.551Z,73.50
2018-06-18T04:49:49.423Z,73.30
2018-06-18T04:52:19.114Z,73.80
2018-06-18T04:54:48.810Z,73.40
2018-06-18T04:57:18.530Z,73.50
2018-06-18T05:00:09.066Z,74.10
2018-06-18T05:02:38.786Z,73.60
2018-06-18T05:05:08.547Z,73.80
2018-06-18T05:07:38.263Z,73.10
2018-06-18T05:10:18.861Z,73.10
2018-06-18T05:12:48.695Z,73.00
2018-06-18T05:15:19.438Z,72.90
2018-06-18T05:17:49.138Z,73.20
2018-06-18T05:22:48.343Z,72.60
2018-06-18T05:25:18.007Z,72.60
2018-06-18T05:27:47.702Z,72.80
2018-06-18T05:30:20.246Z,72.70
2018-06-18T05:32:49.962Z,72.60
2018-06-18T05:35:19.645Z,72.90
2018-06-18T05:37:53.326Z,71.10
2018-06-18T05:40:23.008Z,71.70
2018-06-18T05:42:52.718Z,70.70
2018-06-18T05:45:28.098Z,70.50
2018-06-18T05:47:57.790Z,70.10
2018-06-18T05:50:27.500Z,68.60
2018-06-18T05:52:57.360Z,67.90
2018-06-18T05:55:27.023Z,68.40
2018-06-18T05:57:56.715Z,68.60
2018-06-18T06:00:26.379Z,68.90
2018-06-18T06:05:25.375Z,69.80
2018-06-18T06:07:55.060Z,69.40
2018-06-18T06:10:24.777Z,68.10
2018-06-18T06:12:54.530Z,68.00
2018-06-18T06:15:24.380Z,68.60
2018-06-18T06:17:54.075Z,69.00
2018-06-18T06:20:23.751Z,68.70
2018-06-18T06:22:53.450Z,69.20
2018-06-18T06:25:23.139Z,69.40
2018-06-18T06:27:52.846Z,68.20
2018-06-18T06:30:22.526Z,68.00
2018-06-18T06:32:52.207Z,67.70
2018-06-18T06:35:27.259Z,67.10
2018-06-18T06:37:57.202Z,65.00
2018-06-18T06:40:26.931Z,64.80
2018-06-18T06:42:56.659Z,65.00
2018-06-18T06:45:31.885Z,64.50
2018-06-18T06:48:01.579Z,64.80
2018-06-18T06:50:31.287Z,64.20
2018-06-18T06:53:00.974Z,64.90
2018-06-18T06:55:30.682Z,64.40
2018-06-18T06:58:00.358Z,64.40
2018-06-18T07:00:30.067Z,64.20
2018-06-18T07:02:59.766Z,64.10
2018-06-18T07:05:29.454Z,64.30
2018-06-18T07:07:59.212Z,62.50
2018-06-18T07:10:29.064Z,65.00
2018-06-18T07:12:58.743Z,63.80
2018-06-18T07:15:28.426Z,63.20
2018-06-18T07:17:58.111Z,62.80
2018-06-18T07:20:27.832Z,62.40
2018-06-18T07:25:26.799Z,60.50
2018-06-18T07:27:56.475Z,60.90
2018-06-18T07:30:26.308Z,60.10
2018-06-18T07:32:56.058Z,59.00
2018-06-18T07:35:25.767Z,59.40
2018-06-18T07:37:55.422Z,59.50
2018-06-18T07:40:25.131Z,58.10
2018-06-18T07:42:56.243Z,58.20
2018-06-18T07:45:31.681Z,57.80
2018-06-18T07:48:01.549Z,57.60
2018-06-18T07:50:31.238Z,58.80
2018-06-18T07:53:00.935Z,57.90
2018-06-18T07:55:30.899Z,57.80
2018-06-18T07:58:00.574Z,56.20
2018-06-18T08:00:30.278Z,56.20
2018-06-18T08:02:59.971Z,57.50
2018-06-18T08:05:29.670Z,55.90
2018-06-18T08:07:59.367Z,56.60
2018-06-18T08:10:29.062Z,56.30
2018-06-18T08:12:58.757Z,56.60
2018-06-18T08:15:28.442Z,55.80
2018-06-18T08:17:58.115Z,55.80
2018-06-18T08:20:27.807Z,55.60
2018-06-18T08:22:57.483Z,57.60
2018-06-18T08:25:27.262Z,57.40
2018-06-18T08:27:56.961Z,56.80
2018-06-18T08:30:26.775Z,57.20
2018-06-18T08:32:56.458Z,56.30
2018-06-18T08:35:26.159Z,56.30
2018-06-18T08:37:56.554Z,54.90
2018-06-18T08:40:26.336Z,55.80
2018-06-18T08:42:56.007Z,55.30
2018-06-18T08:45:31.290Z,53.80
2018-06-18T08:48:00.995Z,55.70
2018-06-18T08:50:36.174Z,56.50
2018-06-18T08:53:11.595Z,56.10
2018-06-18T08:55:46.835Z,54.40
2018-06-18T08:58:21.932Z,55.20
2018-06-18T09:00:56.962Z,54.20
2018-06-18T09:03:27.031Z,53.40
2018-06-18T09:06:02.724Z,54.40
2018-06-18T09:08:35.667Z,53.70
2018-06-18T09:13:34.726Z,54.10
2018-06-18T09:16:04.482Z,54.20
2018-06-18T09:18:34.186Z,53.50
2018-06-18T09:21:03.917Z,53.70
2018-06-18T09:23:33.626Z,52.80
2018-06-18T09:26:03.611Z,52.50
2018-06-18T09:28:33.303Z,53.10
2018-06-18T09:31:03.027Z,52.90
2018-06-18T09:33:32.730Z,53.10
2018-06-18T09:36:02.439Z,52.90
2018-06-18T09:38:32.160Z,51.60
2018-06-18T09:41:01.927Z,51.70
2018-06-18T09:43:31.607Z,53.40
2018-06-18T09:46:01.415Z,53.00
2018-06-18T09:48:36.727Z,51.90
2018-06-18T09:51:11.728Z,52.00
2018-06-18T09:53:46.734Z,51.90
2018-06-18T09:56:21.828Z,51.60
2018-06-18T09:58:56.950Z,51.80
2018-06-18T10:01:30.748Z,52.60
2018-06-18T10:04:01.371Z,53.20
2018-06-18T10:06:32.783Z,52.90
2018-06-18T10:09:05.691Z,52.00
2018-06-18T10:11:36.264Z,51.00
2018-06-18T10:14:11.986Z,51.40
2018-06-18T10:16:41.713Z,51.90
2018-06-18T10:19:17.071Z,51.50
2018-06-18T10:21:46.790Z,52.20
2018-06-18T10:24:16.497Z,51.40
2018-06-18T10:26:46.430Z,50.70
2018-06-18T10:29:16.130Z,50.60
2018-06-18T10:31:45.851Z,49.90
2018-06-18T10:34:20.697Z,49.20
2018-06-18T10:36:56.231Z,50.70
2018-06-18T10:39:31.341Z,50.30
2018-06-18T10:42:06.414Z,50.20
2018-06-18T10:44:36.156Z,50.70
2018-06-18T10:47:05.841Z,49.90
2018-06-18T10:49:35.771Z,50.10
2018-06-18T10:52:05.645Z,50.60
2018-06-18T10:54:35.383Z,51.50
2018-06-18T10:57:05.195Z,51.20
2018-06-18T10:59:35.074Z,51.50
2018-06-18T11:02:04.792Z,52.30
2018-06-18T11:04:34.495Z,50.60
2018-06-18T11:07:04.222Z,49.60
2018-06-18T11:09:33.979Z,49.50
2018-06-18T11:12:03.703Z,50.50
2018-06-18T11:14:33.566Z,50.00
2018-06-18T11:17:08.973Z,48.40
2018-06-18T11:19:43.799Z,48.70
2018-06-18T11:22:13.500Z,49.10
2018-06-18T11:24:48.436Z,49.20
2018-06-18T11:27:18.179Z,51.10
2018-06-18T11:29:48.088Z,50.00
2018-06-18T11:32:17.873Z,49.30
2018-06-18T11:34:47.742Z,50.00
2018-06-18T11:37:17.620Z,48.00
2018-06-18T11:39:47.322Z,49.40
2018-06-18T11:42:17.052Z,48.70
2018-06-18T11:44:47.690Z,48.90
2018-06-18T11:47:17.397Z,49.30
2018-06-18T11:49:47.755Z,48.50
2018-06-18T11:52:17.462Z,49.40
2018-06-18T11:54:47.200Z,50.70
2018-06-18T11:57:16.900Z,50.30
2018-06-18T11:59:52.378Z,51.30
2018-06-18T12:02:27.398Z,50.80
2018-06-18T12:05:02.392Z,50.70
2018-06-18T12:07:37.335Z,50.00
2018-06-18T12:10:07.289Z,49.80
2018-06-18T12:12:36.974Z,49.30
2018-06-18T12:15:06.775Z,51.40
2018-06-18T12:17:36.507Z,48.50
2018-06-18T12:20:06.235Z,51.40
2018-06-18T12:22:36.007Z,47.70
2018-06-18T12:25:05.723Z,47.70
2018-06-18T12:27:35.975Z,49.10
2018-06-18T12:30:05.740Z,48.80
2018-06-18T12:32:35.419Z,49.20
2018-06-18T12:35:05.147Z,48.90
2018-06-18T12:37:34.846Z,50.10
2018-06-18T12:40:05.231Z,51.30
2018-06-18T12:42:36.071Z,49.20
2018-06-18T12:45:14.763Z,49.90
2018-06-18T12:47:49.657Z,50.00
2018-06-18T12:50:30.502Z,48.00
2018-06-18T12:53:04.957Z,50.90
2018-06-18T12:55:45.720Z,52.00
2018-06-18T12:58:15.466Z,48.40
2018-06-18T13:00:50.924Z,48.80
2018-06-18T13:03:21.031Z,49.50
2018-06-18T13:05:50.903Z,48.00
2018-06-18T13:08:20.596Z,48.60
2018-06-18T13:10:50.307Z,49.50
2018-06-18T13:13:20.015Z,49.70
2018-06-18T13:15:49.765Z,48.20
2018-06-18T13:18:19.818Z,48.10
2018-06-18T13:20:49.539Z,48.60
2018-06-18T13:23:19.532Z,48.40
2018-06-18T13:25:49.252Z,49.20
2018-06-18T13:28:19.274Z,48.70
2018-06-18T13:30:49.219Z,49.10
2018-06-18T13:33:18.919Z,46.90
2018-06-18T13:35:48.656Z,47.50
2018-06-18T13:39:24.290Z,49.10
2018-06-18T13:41:59.434Z,48.00
2018-06-18T13:44:34.434Z,49.40
2018-06-18T13:47:09.508Z,48.10
2018-06-18T13:49:44.695Z,48.20
2018-06-18T13:52:14.403Z,49.30
2018-06-18T13:54:44.095Z,49.10
2018-06-18T13:57:13.830Z,47.10
2018-06-18T13:59:43.556Z,47.80
2018-06-18T14:02:13.286Z,47.10
2018-06-18T14:04:43.395Z,47.70
2018-06-18T14:07:13.126Z,49.50
2018-06-18T14:09:43.386Z,48.60
2018-06-18T14:12:13.144Z,50.20
2018-06-18T14:14:42.928Z,48.00
2018-06-18T14:17:12.707Z,48.30
2018-06-18T14:19:47.806Z,48.20
2018-06-18T14:22:17.740Z,49.60
2018-06-18T14:24:47.465Z,48.80
2018-06-18T14:27:17.159Z,47.40
2018-06-18T14:29:52.064Z,47.90
2018-06-18T14:32:27.146Z,49.20
2018-06-18T14:35:02.367Z,47.60
2018-06-18T14:37:37.431Z,48.50
2018-06-18T14:40:14.227Z,47.60
2018-06-18T14:42:44.152Z,47.20
2018-06-18T14:45:19.568Z,46.60
2018-06-18T14:47:49.303Z,46.20
2018-06-18T14:50:19.015Z,46.60
2018-06-18T14:52:48.735Z,46.80
2018-06-18T14:55:18.457Z,46.80
2018-06-18T14:57:48.181Z,46.90
2018-06-18T15:00:34.170Z,48.00
2018-06-18T15:03:04.001Z,46.80
2018-06-18T15:05:37.954Z,48.30
2018-06-18T15:08:07.715Z,47.70
2018-06-18T15:10:42.600Z,46.10
2018-06-18T15:13:13.952Z,46.50
2018-06-18T15:15:49.044Z,47.70
2018-06-18T15:18:18.974Z,45.50
2018-06-18T15:20:48.680Z,45.10
2018-06-18T15:23:18.430Z,45.80
2018-06-18T15:25:50.259Z,47.00
2018-06-18T15:28:19.996Z,45.90
2018-06-18T15:30:49.701Z,48.00
2018-06-18T15:33:19.463Z,47.10
2018-06-18T15:35:49.150Z,46.40
2018-06-18T15:38:18.958Z,46.10
2018-06-18T15:40:48.779Z,46.40
2018-06-18T15:43:18.542Z,46.60
2018-06-18T15:45:51.099Z,47.90
2018-06-18T15:48:20.835Z,48.30
2018-06-18T15:50:50.523Z,47.30
2018-06-18T15:53:20.227Z,47.30
2018-06-18T15:55:49.920Z,46.90
2018-06-18T15:58:19.698Z,45.30
2018-06-18T16:00:49.395Z,46.50
2018-06-18T16:03:19.159Z,46.40
2018-06-18T16:05:48.980Z,45.30
2018-06-18T16:08:18.731Z,47.30
2018-06-18T16:10:48.427Z,46.50
2018-06-18T16:13:18.187Z,46.40
2018-06-18T16:15:47.903Z,46.80
2018-06-18T16:18:17.623Z,46.50
2018-06-18T16:20:47.316Z,46.90
2018-06-18T16:23:17.062Z,46.10
2018-06-18T16:25:46.802Z,45.80
2018-06-18T16:28:16.540Z,46.70
2018-06-18T16:33:15.591Z,47.30
2018-06-18T16:35:46.240Z,46.80
2018-06-18T16:38:15.953Z,46.50
2018-06-18T16:40:45.667Z,45.90
2018-06-18T16:43:15.435Z,47.20
2018-06-18T16:45:50.931Z,47.80
2018-06-18T16:48:23.095Z,47.20
2018-06-18T16:50:52.787Z,47.50
2018-06-18T16:53:22.512Z,47.40
2018-06-18T16:55:52.254Z,47.10
2018-06-18T16:58:21.956Z,47.10
2018-06-18T17:00:51.843Z,47.10
2018-06-18T17:03:21.579Z,47.10
2018-06-18T17:10:57.035Z,48.30
2018-06-18T17:13:26.838Z,47.70
2018-06-18T17:15:56.559Z,47.90
2018-06-18T17:18:26.259Z,47.70
2018-06-18T17:20:56.027Z,48.40
2018-06-18T17:23:25.764Z,47.70
2018-06-18T17:25:55.703Z,47.70
2018-06-18T17:28:25.411Z,46.60
2018-06-18T17:30:55.123Z,48.30
2018-06-18T17:33:24.831Z,48.10
2018-06-18T17:35:54.643Z,47.70
2018-06-18T17:38:24.324Z,47.90
2018-06-18T17:40:54.075Z,48.20
2018-06-18T17:43:23.829Z,47.90
2018-06-18T17:45:59.972Z,48.70
2018-06-18T17:48:30.082Z,48.70
2018-06-18T17:51:01.137Z,48.80
2018-06-18T17:53:32.156Z,49.50
2018-06-18T17:56:01.985Z,50.20
2018-06-18T17:58:31.727Z,50.70
2018-06-18T18:01:01.536Z,50.10
2018-06-18T18:03:31.294Z,50.70
2018-06-18T18:06:01.024Z,51.10
2018-06-18T18:08:31.110Z,51.00
2018-06-18T18:11:00.814Z,51.20
2018-06-18T18:13:30.603Z,51.10
2018-06-18T18:16:00.468Z,51.70
2018-06-18T18:18:30.879Z,51.70
2018-06-18T18:21:00.618Z,51.90
2018-06-18T18:23:30.330Z,52.10
2018-06-18T18:26:00.068Z,52.30
2018-06-18T18:28:29.783Z,52.20
2018-06-18T18:30:59.643Z,52.80
2018-06-18T18:33:29.460Z,53.00
2018-06-18T18:35:59.332Z,52.80
2018-06-18T18:38:29.122Z,54.10
2018-06-18T18:40:58.851Z,53.40
2018-06-18T18:43:28.566Z,53.40
2018-06-18T18:45:58.314Z,53.80
2018-06-18T18:48:28.050Z,53.80
2018-06-18T18:50:57.791Z,54.00
2018-06-18T18:53:27.546Z,53.90
2018-06-18T18:56:08.651Z,54.40
2018-06-18T18:59:43.143Z,54.90
2018-06-18T19:02:12.986Z,54.70
2018-06-18T19:04:58.804Z,55.10
2018-06-18T19:07:35.199Z,55.10
2018-06-18T19:10:25.416Z,56.50
2018-06-18T19:12:56.691Z,56.70
2018-06-18T19:15:26.486Z,57.40
2018-06-18T19:17:56.204Z,57.50
2018-06-18T19:20:45.199Z,58.00
2018-06-18T19:23:14.903Z,57.50
2018-06-18T19:25:44.722Z,58.60
2018-06-18T19:28:14.587Z,58.20
2018-06-18T19:30:47.756Z,58.30
2018-06-18T19:33:21.116Z,58.70
2018-06-18T19:35:50.883Z,58.40
2018-06-18T19:38:20.607Z,59.40
2018-06-18T19:40:50.628Z,59.60
2018-06-18T19:43:20.359Z,59.50
2018-06-18T19:45:54.309Z,59.60
2018-06-18T19:48:28.496Z,59.90
2018-06-18T19:50:58.264Z,59.90
2018-06-18T19:53:27.991Z,60.30
2018-06-18T19:55:57.687Z,60.30
2018-06-18T19:58:27.594Z,60.70
2018-06-18T20:01:00.380Z,61.00
2018-06-18T20:03:30.152Z,61.50
2018-06-18T20:05:59.851Z,61.90
2018-06-18T20:08:32.437Z,62.10
2018-06-18T20:11:02.635Z,61.80
2018-06-18T20:13:32.402Z,62.20
2018-06-18T20:16:02.150Z,62.70
2018-06-18T20:18:31.860Z,63.00
2018-06-18T20:21:01.591Z,62.70
2018-06-18T20:23:31.379Z,63.20
2018-06-18T20:26:11.192Z,62.80
2018-06-18T20:28:40.915Z,63.50
2018-06-18T20:31:10.611Z,63.60
2018-06-18T20:33:45.633Z,63.60
2018-06-18T20:36:16.813Z,63.50
2018-06-18T20:38:46.527Z,63.60
2018-06-18T20:41:16.242Z,64.10
2018-06-18T20:44:19.535Z,65.30
2018-06-18T20:46:49.246Z,64.70
2018-06-18T20:49:18.964Z,64.60
2018-06-18T20:51:48.747Z,65.10
2018-06-18T20:54:18.934Z,65.10
2018-06-18T20:56:49.395Z,65.20
2018-06-18T20:59:19.159Z,65.40
2018-06-18T21:01:49.226Z,65.70
2018-06-18T21:04:18.927Z,66.00
2018-06-18T21:06:49.744Z,65.80
2018-06-18T21:09:21.710Z,66.00
2018-06-18T21:11:51.627Z,66.10
2018-06-18T21:14:21.450Z,66.30
2018-06-18T21:16:51.241Z,66.60
2018-06-18T21:19:20.958Z,66.60
2018-06-18T21:21:50.627Z,66.50
2018-06-18T21:24:20.355Z,66.60
2018-06-18T21:26:50.059Z,66.80
2018-06-18T21:29:19.774Z,67.40
2018-06-18T21:31:49.480Z,67.30
2018-06-18T21:34:19.199Z,67.30
2018-06-18T21:36:48.875Z,67.90
2018-06-18T21:39:18.603Z,68.00
2018-06-18T21:41:48.318Z,68.00
2018-06-18T21:44:45.621Z,68.20
2018-06-18T21:47:15.306Z,68.10
2018-06-18T21:49:45.023Z,68.50
2018-06-18T21:52:14.764Z,68.90
2018-06-18T21:54:44.511Z,68.80
2018-06-18T21:57:15.395Z,68.70
2018-06-18T21:59:45.187Z,69.00
2018-06-18T22:02:14.899Z,69.20
2018-06-18T22:04:44.619Z,69.30
2018-06-18T22:07:14.356Z,69.60
2018-06-18T22:09:44.419Z,69.70
2018-06-18T22:12:14.107Z,70.10
2018-06-18T22:14:43.823Z,70.10
2018-06-18T22:17:13.521Z,70.00
2018-06-18T22:19:43.231Z,70.50
2018-06-18T22:22:12.971Z,70.50
2018-06-18T22:27:12.259Z,70.60
2018-06-18T22:29:42.004Z,70.50
2018-06-18T22:32:11.719Z,70.60
2018-06-18T22:34:41.432Z,70.70
2018-06-18T22:37:11.463Z,71.00
2018-06-18T22:39:41.539Z,70.80
2018-06-18T22:42:11.216Z,71.10
2018-06-18T22:44:40.923Z,70.70
2018-06-18T22:47:10.719Z,70.80
2018-06-18T22:49:40.508Z,70.70
2018-06-18T22:52:10.179Z,70.30
2018-06-18T22:54:45.782Z,70.50
2018-06-18T22:57:16.293Z,70.80
2018-06-18T22:59:46.803Z,71.40
2018-06-18T23:02:19.574Z,71.40
2018-06-18T23:04:49.427Z,71.80
2018-06-18T23:07:19.115Z,71.90
2018-06-18T23:09:48.840Z,72.40
2018-06-18T23:12:19.639Z,72.60
2018-06-18T23:14:49.570Z,72.80
2018-06-18T23:17:19.264Z,73.10
2018-06-18T23:19:48.971Z,73.40
2018-06-18T23:22:18.632Z,73.20
2018-06-18T23:24:48.387Z,73.00
2018-06-18T23:27:18.051Z,73.70
2018-06-18T23:29:47.763Z,72.90
2018-06-18T23:32:17.442Z,72.70
2018-06-18T23:34:47.175Z,72.90
2018-06-18T23:37:16.963Z,72.70
2018-06-18T23:39:46.706Z,72.60
2018-06-18T23:42:16.480Z,72.40
2018-06-18T23:44:48.231Z,72.40
2018-06-18T23:47:17.965Z,72.10
2018-06-18T23:49:47.662Z,72.20
2018-06-18T23:52:17.789Z,72.10
2018-06-18T23:54:47.510Z,72.50
2018-06-18T23:57:17.283Z,72.10
2018-06-18T23:59:47.375Z,72.10
